createdAt,value
2022-08-30T00:00:44.135Z,3.80
2022-08-30T00:01:44.139Z,4.30
2022-08-30T00:02:44.284Z,3.50
2022-08-30T00:03:44.188Z,3.80
2022-08-30T00:04:44.109Z,3.70
2022-08-30T00:05:44.104Z,3.40
2022-08-30T00:06:44.099Z,4.10
2022-08-30T00:07:44.122Z,3.70
2022-08-30T00:08:44.106Z,3.40
2022-08-30T00:09:44.073Z,3.40
2022-08-30T00:10:44.056Z,4.10
2022-08-30T00:11:45.056Z,3.80
2022-08-30T00:12:44.104Z,4.20
2022-08-30T00:13:44.051Z,4.00
2022-08-30T00:14:44.027Z,4.10
2022-08-30T00:15:44.067Z,4.20
2022-08-30T00:16:44.013Z,4.30
2022-08-30T00:17:44.029Z,4.70
2022-08-30T00:18:44.006Z,4.10
2022-08-30T00:19:43.985Z,4.40
2022-08-30T00:20:43.980Z,4.30
2022-08-30T00:21:43.971Z,3.50
2022-08-30T00:22:43.992Z,4.60
2022-08-30T00:23:43.995Z,4.30
2022-08-30T00:24:43.943Z,3.90
2022-08-30T00:25:43.937Z,4.30
2022-08-30T00:26:43.943Z,4.50
2022-08-30T00:27:43.954Z,4.00
2022-08-30T00:28:43.934Z,4.00
2022-08-30T00:29:43.905Z,4.00
2022-08-30T00:30:43.908Z,4.30
2022-08-30T00:31:43.921Z,4.10
2022-08-30T00:32:43.917Z,4.50
2022-08-30T00:33:43.894Z,4.30
2022-08-30T00:34:43.862Z,4.00
2022-08-30T00:35:43.860Z,4.10
2022-08-30T00:36:43.854Z,3.90
2022-08-30T00:37:43.859Z,4.40
2022-08-30T00:38:43.823Z,4.30
2022-08-30T00:39:43.831Z,3.80
2022-08-30T00:40:43.874Z,3.60
2022-08-30T00:41:43.807Z,3.90
2022-08-30T00:42:43.823Z,4.10
2022-08-30T00:43:43.788Z,4.00
2022-08-30T00:44:43.789Z,3.90
2022-08-30T00:45:43.774Z,3.60
2022-08-30T00:46:43.837Z,4.20
2022-08-30T00:47:43.783Z,4.20
2022-08-30T00:48:43.751Z,4.20
2022-08-30T00:49:43.740Z,4.30
2022-08-30T00:50:43.725Z,4.40
2022-08-30T00:51:43.719Z,4.20
2022-08-30T00:52:43.735Z,3.70
2022-08-30T00:53:44.703Z,4.20
2022-08-30T00:54:43.701Z,3.90
2022-08-30T00:55:44.343Z,3.80
2022-08-30T00:56:43.680Z,3.90
2022-08-30T00:57:43.701Z,3.90
2022-08-30T00:58:43.698Z,4.20
2022-08-30T00:59:43.660Z,3.60
2022-08-30T01:00:43.654Z,3.80
2022-08-30T01:01:43.684Z,4.40
2022-08-30T01:02:43.690Z,4.50
2022-08-30T01:03:43.624Z,4.30
2022-08-30T01:04:43.678Z,4.60
2022-08-30T01:05:43.609Z,3.80
2022-08-30T01:06:43.613Z,4.10
2022-08-30T01:07:43.639Z,4.30
2022-08-30T01:08:43.591Z,4.10
2022-08-30T01:09:43.580Z,4.10
2022-08-30T01:10:43.569Z,4.00
2022-08-30T01:11:43.562Z,3.70
2022-08-30T01:12:43.600Z,4.00
2022-08-30T01:13:43.551Z,3.90
2022-08-30T01:14:43.551Z,3.70
2022-08-30T01:15:43.574Z,4.20
2022-08-30T01:16:43.525Z,4.20
2022-08-30T01:17:43.610Z,3.90
2022-08-30T01:18:43.505Z,3.80
2022-08-30T01:19:43.523Z,3.80
2022-08-30T01:20:43.492Z,4.00
2022-08-30T01:21:43.508Z,3.80
2022-08-30T01:22:43.522Z,4.50
2022-08-30T01:23:43.468Z,3.70
2022-08-30T01:24:43.462Z,4.20
2022-08-30T01:25:43.448Z,3.90
2022-08-30T01:26:43.444Z,4.00
2022-08-30T01:27:43.435Z,4.10
2022-08-30T01:28:43.454Z,4.10
2022-08-30T01:29:43.417Z,3.90
2022-08-30T01:30:43.453Z,4.20
2022-08-30T01:31:43.401Z,3.90
2022-08-30T01:32:43.388Z,4.20
2022-08-30T01:33:43.440Z,4.50
2022-08-30T01:34:43.375Z,3.90
2022-08-30T01:35:43.368Z,4.20
2022-08-30T01:36:45.171Z,4.50
2022-08-30T01:37:43.392Z,4.60
2022-08-30T01:38:43.349Z,4.40
2022-08-30T01:39:43.332Z,4.10
2022-08-30T01:40:43.389Z,4.00
2022-08-30T01:41:43.316Z,3.80
2022-08-30T01:42:43.340Z,4.20
2022-08-30T01:43:43.335Z,3.80
2022-08-30T01:44:43.309Z,3.90
2022-08-30T01:45:43.339Z,4.50
2022-08-30T01:46:43.283Z,4.00
2022-08-30T01:47:43.290Z,3.90
2022-08-30T01:48:50.269Z,4.10
2022-08-30T01:49:44.252Z,4.50
2022-08-30T01:50:43.245Z,4.70
2022-08-30T01:51:43.244Z,4.30
2022-08-30T01:52:43.253Z,4.30
2022-08-30T01:53:43.223Z,4.80
2022-08-30T01:54:43.273Z,4.20
2022-08-30T01:55:43.209Z,4.40
2022-08-30T01:56:43.197Z,4.50
2022-08-30T01:57:43.218Z,4.10
2022-08-30T01:58:43.184Z,4.70
2022-08-30T01:59:43.196Z,4.40
2022-08-30T02:00:43.169Z,4.10
2022-08-30T02:01:43.231Z,4.20
2022-08-30T02:02:43.219Z,5.50
2022-08-30T02:03:43.209Z,5.90
2022-08-30T02:04:43.135Z,5.10
2022-08-30T02:05:43.126Z,5.40
2022-08-30T02:06:43.134Z,5.50
2022-08-30T02:07:43.167Z,5.90
2022-08-30T02:08:43.100Z,5.30
2022-08-30T02:09:43.095Z,5.10
2022-08-30T02:10:43.087Z,5.00
2022-08-30T02:11:43.074Z,4.90
2022-08-30T02:12:43.069Z,4.90
2022-08-30T02:13:43.167Z,4.70
2022-08-30T02:14:43.052Z,5.00
2022-08-30T02:15:43.047Z,4.70
2022-08-30T02:16:43.077Z,4.50
2022-08-30T02:17:43.025Z,5.30
2022-08-30T02:18:43.050Z,5.00
2022-08-30T02:19:43.037Z,5.00
2022-08-30T02:20:43.003Z,5.30
2022-08-30T02:21:43.004Z,5.00
2022-08-30T02:22:43.436Z,4.80
2022-08-30T02:23:44.010Z,4.70
2022-08-30T02:24:43.019Z,4.70
2022-08-30T02:25:42.957Z,4.50
2022-08-30T02:26:42.955Z,5.00
2022-08-30T02:27:42.953Z,4.60
2022-08-30T02:28:49.868Z,4.90
2022-08-30T02:29:43.926Z,5.00
2022-08-30T02:30:42.953Z,5.00
2022-08-30T02:31:42.908Z,5.80
2022-08-30T02:32:42.903Z,5.50
2022-08-30T02:33:42.929Z,5.10
2022-08-30T02:34:42.889Z,5.80
2022-08-30T02:35:42.875Z,5.50
2022-08-30T02:36:42.870Z,5.30
2022-08-30T02:37:42.871Z,5.10
2022-08-30T02:38:42.874Z,4.50
2022-08-30T02:39:42.897Z,4.60
2022-08-30T02:40:42.916Z,4.60
2022-08-30T02:41:42.827Z,4.80
2022-08-30T02:42:42.819Z,4.80
2022-08-30T02:43:42.846Z,4.70
2022-08-30T02:44:42.821Z,4.90
2022-08-30T02:45:42.851Z,5.10
2022-08-30T02:46:42.780Z,5.00
2022-08-30T02:47:46.796Z,5.10
2022-08-30T02:48:43.905Z,4.50
2022-08-30T02:49:42.774Z,5.00
2022-08-30T02:50:42.776Z,5.40
2022-08-30T02:51:42.748Z,5.30
2022-08-30T02:52:42.807Z,5.70
2022-08-30T02:53:42.758Z,4.90
2022-08-30T02:54:42.723Z,4.70
2022-08-30T02:55:42.763Z,5.10
2022-08-30T02:56:42.701Z,5.40
2022-08-30T02:57:42.688Z,5.10
2022-08-30T02:58:42.723Z,5.70
2022-08-30T02:59:42.689Z,5.20
2022-08-30T03:00:43.003Z,5.20
2022-08-30T03:01:42.725Z,4.80
2022-08-30T03:02:42.677Z,5.40
2022-08-30T03:03:42.692Z,5.40
2022-08-30T03:04:42.631Z,5.20
2022-08-30T03:05:42.632Z,5.10
2022-08-30T03:06:42.625Z,5.10
2022-08-30T03:07:42.608Z,5.30
2022-08-30T03:08:42.632Z,5.60
2022-08-30T03:09:42.593Z,5.20
2022-08-30T03:10:42.583Z,5.20
2022-08-30T03:11:42.573Z,5.30
2022-08-30T03:12:42.569Z,4.80
2022-08-30T03:13:42.588Z,5.20
2022-08-30T03:14:42.545Z,5.00
2022-08-30T03:15:42.544Z,4.90
2022-08-30T03:16:42.577Z,5.30
2022-08-30T03:17:42.519Z,5.10
2022-08-30T03:18:43.554Z,5.60
2022-08-30T03:19:42.551Z,6.00
2022-08-30T03:20:42.723Z,6.80
2022-08-30T03:21:42.558Z,6.20
2022-08-30T03:22:42.483Z,5.90
2022-08-30T03:23:42.497Z,5.50
2022-08-30T03:24:43.466Z,6.10
2022-08-30T03:25:42.462Z,6.50
2022-08-30T03:26:46.200Z,5.90
2022-08-30T03:27:43.453Z,5.50
2022-08-30T03:28:42.483Z,5.20
2022-08-30T03:29:42.425Z,5.00
2022-08-30T03:30:42.417Z,5.70
2022-08-30T03:31:52.471Z,5.40
2022-08-30T03:32:43.404Z,5.30
2022-08-30T03:33:42.426Z,6.00
2022-08-30T03:34:42.383Z,5.10
2022-08-30T03:35:42.387Z,5.10
2022-08-30T03:36:42.367Z,5.50
2022-08-30T03:37:42.376Z,5.20
2022-08-30T03:38:42.381Z,4.70
2022-08-30T03:39:42.382Z,5.30
2022-08-30T03:40:42.428Z,5.40
2022-08-30T03:41:42.321Z,5.60
2022-08-30T03:42:44.018Z,5.50
2022-08-30T03:43:42.305Z,5.40
2022-08-30T03:44:42.330Z,5.70
2022-08-30T03:45:42.326Z,5.70
2022-08-30T03:46:42.278Z,6.20
2022-08-30T03:47:42.272Z,5.90
2022-08-30T03:48:42.265Z,7.00
2022-08-30T03:49:42.285Z,6.20
2022-08-30T03:50:42.249Z,6.30
2022-08-30T03:51:42.236Z,5.70
2022-08-30T03:52:42.231Z,6.00
2022-08-30T03:53:42.217Z,6.70
2022-08-30T03:54:42.242Z,5.50
2022-08-30T03:55:42.218Z,5.70
2022-08-30T03:56:42.198Z,5.80
2022-08-30T03:57:43.683Z,6.20
2022-08-30T03:58:42.184Z,5.70
2022-08-30T03:59:42.195Z,5.20
2022-08-30T04:00:42.198Z,6.20
2022-08-30T04:01:42.166Z,5.30
2022-08-30T04:02:42.239Z,6.00
2022-08-30T04:03:42.135Z,6.10
2022-08-30T04:04:42.156Z,5.40
2022-08-30T04:05:42.121Z,5.60
2022-08-30T04:06:42.113Z,6.50
2022-08-30T04:07:42.104Z,6.30
2022-08-30T04:08:42.095Z,6.30
2022-08-30T04:09:42.113Z,6.30
2022-08-30T04:10:42.076Z,6.40
2022-08-30T04:11:42.071Z,6.80
2022-08-30T04:12:45.086Z,5.70
2022-08-30T04:13:43.046Z,6.60
2022-08-30T04:14:42.070Z,6.30
2022-08-30T04:15:42.029Z,5.90
2022-08-30T04:16:42.135Z,5.50
2022-08-30T04:17:42.017Z,5.50
2022-08-30T04:18:42.011Z,6.30
2022-08-30T04:19:42.031Z,6.20
2022-08-30T04:20:41.991Z,6.10
2022-08-30T04:21:42.838Z,5.60
2022-08-30T04:22:41.972Z,6.00
2022-08-30T04:23:41.972Z,6.20
2022-08-30T04:24:41.995Z,5.90
2022-08-30T04:25:41.949Z,5.80
2022-08-30T04:26:41.950Z,6.30
2022-08-30T04:27:41.938Z,5.80
2022-08-30T04:28:41.932Z,5.60
2022-08-30T04:29:41.952Z,5.30
2022-08-30T04:30:41.911Z,5.50
2022-08-30T04:31:41.939Z,4.70
2022-08-30T04:32:41.898Z,5.20
2022-08-30T04:33:41.893Z,5.20
2022-08-30T04:34:41.916Z,6.00
2022-08-30T04:35:41.871Z,5.50
2022-08-30T04:36:41.864Z,5.10
2022-08-30T04:37:42.853Z,4.90
2022-08-30T04:38:41.878Z,5.60
2022-08-30T04:39:41.834Z,5.30
2022-08-30T04:40:41.878Z,5.50
2022-08-30T04:41:41.828Z,5.00
2022-08-30T04:42:41.808Z,6.00
2022-08-30T04:43:42.833Z,5.70
2022-08-30T04:44:41.800Z,5.30
2022-08-30T04:45:41.840Z,5.40
2022-08-30T04:46:44.753Z,6.00
2022-08-30T04:47:41.771Z,5.50
2022-08-30T04:48:41.761Z,6.00
2022-08-30T04:49:41.784Z,5.70
2022-08-30T04:50:41.755Z,5.40
2022-08-30T04:51:41.741Z,6.30
2022-08-30T04:52:41.738Z,6.00
2022-08-30T04:53:41.726Z,6.00
2022-08-30T04:54:41.733Z,6.00
2022-08-30T04:55:42.708Z,6.20
2022-08-30T04:56:41.702Z,6.60
2022-08-30T04:57:41.694Z,6.80
2022-08-30T04:58:41.685Z,7.00
2022-08-30T04:59:41.712Z,6.40
2022-08-30T05:00:41.684Z,5.90
2022-08-30T05:01:45.686Z,6.00
2022-08-30T05:02:41.707Z,6.20
2022-08-30T05:03:41.633Z,5.80
2022-08-30T05:04:41.655Z,5.80
2022-08-30T05:05:41.624Z,5.20
2022-08-30T05:06:41.603Z,5.20
2022-08-30T05:07:41.602Z,5.70
2022-08-30T05:08:41.598Z,5.80
2022-08-30T05:09:42.611Z,5.40
2022-08-30T05:10:41.577Z,5.60
2022-08-30T05:11:41.573Z,4.90
2022-08-30T05:12:41.561Z,5.80
2022-08-30T05:13:41.554Z,5.70
2022-08-30T05:14:41.579Z,5.40
2022-08-30T05:15:41.538Z,4.70
2022-08-30T05:16:41.733Z,4.80
2022-08-30T05:17:41.526Z,5.70
2022-08-30T05:18:41.516Z,5.30
2022-08-30T05:19:41.533Z,5.60
2022-08-30T05:20:41.505Z,4.70
2022-08-30T05:21:41.516Z,4.70
2022-08-30T05:22:41.483Z,4.70
2022-08-30T05:23:41.474Z,5.10
2022-08-30T05:24:41.483Z,4.90
2022-08-30T05:25:41.457Z,5.10
2022-08-30T05:26:41.506Z,4.60
2022-08-30T05:27:41.449Z,4.90
2022-08-30T05:28:41.426Z,4.90
2022-08-30T05:29:41.448Z,4.80
2022-08-30T05:30:41.410Z,5.70
2022-08-30T05:31:41.415Z,5.40
2022-08-30T05:32:41.392Z,4.70
2022-08-30T05:33:41.385Z,4.60
2022-08-30T05:34:41.414Z,4.70
2022-08-30T05:35:41.371Z,5.40
2022-08-30T05:36:41.359Z,5.00
2022-08-30T05:37:41.347Z,5.20
2022-08-30T05:38:41.359Z,4.30
2022-08-30T05:39:50.722Z,4.60
2022-08-30T05:40:42.412Z,4.40
2022-08-30T05:41:41.324Z,4.70
2022-08-30T05:42:41.349Z,4.30
2022-08-30T05:43:41.311Z,4.40
2022-08-30T05:44:41.328Z,4.20
2022-08-30T05:45:41.284Z,4.20
2022-08-30T05:46:41.289Z,4.10
2022-08-30T05:47:41.272Z,4.30
2022-08-30T05:48:41.269Z,4.60
2022-08-30T05:49:41.284Z,4.20
2022-08-30T05:50:41.242Z,4.10
2022-08-30T05:51:43.125Z,4.50
2022-08-30T05:52:41.232Z,4.20
2022-08-30T05:53:41.223Z,4.70
2022-08-30T05:54:41.246Z,4.20
2022-08-30T05:55:41.216Z,5.00
2022-08-30T05:56:41.194Z,4.40
2022-08-30T05:57:41.199Z,4.20
2022-08-30T05:58:41.186Z,4.30
2022-08-30T05:59:41.199Z,4.30
2022-08-30T06:00:41.167Z,4.20
2022-08-30T06:01:41.241Z,4.10
2022-08-30T06:02:41.195Z,4.30
2022-08-30T06:03:41.138Z,4.10
2022-08-30T06:04:41.153Z,4.50
2022-08-30T06:05:41.171Z,4.10
2022-08-30T06:06:41.116Z,3.70
2022-08-30T06:07:41.105Z,4.10
2022-08-30T06:08:41.103Z,4.40
2022-08-30T06:09:41.278Z,5.10
2022-08-30T06:10:41.126Z,4.30
2022-08-30T06:11:41.078Z,4.70
2022-08-30T06:12:41.069Z,4.20
2022-08-30T06:13:41.061Z,4.00
2022-08-30T06:14:41.050Z,4.80
2022-08-30T06:15:41.100Z,4.50
2022-08-30T06:16:41.043Z,4.00
2022-08-30T06:17:41.027Z,4.00
2022-08-30T06:18:41.023Z,4.60
2022-08-30T06:19:41.011Z,3.90
2022-08-30T06:20:41.044Z,4.40
2022-08-30T06:21:40.992Z,4.20
2022-08-30T06:22:40.991Z,4.10
2022-08-30T06:23:40.978Z,4.20
2022-08-30T06:24:56.948Z,4.30
2022-08-30T06:25:42.987Z,4.50
2022-08-30T06:26:40.952Z,3.60
2022-08-30T06:27:40.947Z,4.30
2022-08-30T06:28:40.940Z,4.20
2022-08-30T06:29:40.927Z,3.90
2022-08-30T06:30:40.952Z,4.50
2022-08-30T06:31:40.977Z,4.60
2022-08-30T06:32:40.909Z,4.20
2022-08-30T06:33:40.895Z,4.30
2022-08-30T06:34:40.896Z,4.10
2022-08-30T06:35:56.709Z,4.30
2022-08-30T06:36:42.882Z,3.90
2022-08-30T06:37:40.872Z,4.10
2022-08-30T06:38:40.865Z,4.40
2022-08-30T06:39:40.849Z,3.90
2022-08-30T06:40:40.921Z,3.80
2022-08-30T06:41:40.835Z,3.70
2022-08-30T06:42:40.832Z,3.80
2022-08-30T06:43:42.652Z,4.00
2022-08-30T06:44:40.805Z,3.80
2022-08-30T06:45:41.823Z,4.00
2022-08-30T06:46:40.826Z,3.80
2022-08-30T06:47:40.784Z,3.70
2022-08-30T06:48:43.006Z,4.00
2022-08-30T06:49:40.765Z,3.90
2022-08-30T06:50:40.786Z,4.30
2022-08-30T06:51:41.336Z,3.50
2022-08-30T06:52:40.767Z,3.10
2022-08-30T06:53:40.727Z,4.20
2022-08-30T06:54:40.721Z,3.90
2022-08-30T06:55:40.797Z,4.40
2022-08-30T06:56:48.736Z,3.70
2022-08-30T06:57:41.703Z,3.80
2022-08-30T06:58:40.714Z,4.00
2022-08-30T06:59:40.699Z,3.70
2022-08-30T07:00:40.711Z,3.90
2022-08-30T07:01:40.703Z,3.70
2022-08-30T07:02:40.734Z,3.80
2022-08-30T07:03:40.656Z,3.50
2022-08-30T07:04:40.650Z,3.90
2022-08-30T07:05:40.673Z,4.20
2022-08-30T07:06:40.630Z,3.40
2022-08-30T07:07:40.627Z,3.50
2022-08-30T07:08:40.622Z,3.20
2022-08-30T07:09:40.614Z,3.10
2022-08-30T07:10:40.623Z,3.30
2022-08-30T07:11:40.589Z,3.30
2022-08-30T07:12:40.581Z,3.30
2022-08-30T07:13:40.569Z,3.10
2022-08-30T07:14:40.577Z,3.50
2022-08-30T07:15:40.625Z,3.20
2022-08-30T07:16:40.555Z,3.10
2022-08-30T07:17:40.540Z,3.30
2022-08-30T07:18:40.543Z,3.10
2022-08-30T07:19:40.571Z,3.20
2022-08-30T07:20:40.952Z,3.20
2022-08-30T07:21:40.503Z,3.30
2022-08-30T07:22:40.529Z,2.80
2022-08-30T07:23:40.521Z,3.40
2022-08-30T07:24:40.537Z,3.30
2022-08-30T07:25:40.586Z,3.10
2022-08-30T07:26:40.484Z,3.00
2022-08-30T07:27:40.465Z,3.40
2022-08-30T07:28:40.454Z,3.20
2022-08-30T07:29:40.443Z,2.90
2022-08-30T07:30:40.490Z,2.90
2022-08-30T07:31:40.436Z,3.00
2022-08-30T07:32:40.426Z,2.90
2022-08-30T07:33:40.412Z,3.20
2022-08-30T07:34:40.405Z,2.90
2022-08-30T07:35:40.431Z,2.90
2022-08-30T07:36:40.402Z,2.90
2022-08-30T07:37:40.384Z,3.10
2022-08-30T07:38:40.380Z,3.10
2022-08-30T07:39:44.548Z,2.60
2022-08-30T07:40:41.469Z,2.70
2022-08-30T07:41:40.350Z,3.00
2022-08-30T07:42:40.337Z,3.30
2022-08-30T07:43:40.332Z,3.20
2022-08-30T07:44:40.323Z,3.00
2022-08-30T07:45:40.367Z,3.30
2022-08-30T07:46:40.420Z,2.80
2022-08-30T07:47:40.301Z,3.00
2022-08-30T07:48:40.290Z,2.90
2022-08-30T07:49:40.298Z,2.80
2022-08-30T07:50:40.280Z,3.20
2022-08-30T07:51:40.296Z,3.00
2022-08-30T07:52:40.268Z,2.60
2022-08-30T07:53:40.248Z,2.50
2022-08-30T07:54:40.252Z,2.60
2022-08-30T07:55:40.253Z,2.60
2022-08-30T07:56:40.258Z,2.60
2022-08-30T07:57:40.220Z,2.80
2022-08-30T07:58:40.212Z,3.00
2022-08-30T07:59:40.214Z,3.00
2022-08-30T08:00:40.202Z,2.70
2022-08-30T08:01:41.280Z,2.80
2022-08-30T08:02:40.221Z,2.70
2022-08-30T08:03:40.185Z,2.60
2022-08-30T08:04:40.177Z,2.70
2022-08-30T08:05:40.165Z,2.50
2022-08-30T08:06:40.276Z,2.80
2022-08-30T08:07:40.139Z,2.50
2022-08-30T08:08:40.139Z,2.70
2022-08-30T08:09:40.129Z,3.00
2022-08-30T08:10:40.123Z,2.50
2022-08-30T08:11:40.142Z,2.60
2022-08-30T08:12:40.107Z,2.90
2022-08-30T08:13:52.823Z,2.80
2022-08-30T08:14:41.096Z,2.80
2022-08-30T08:15:40.153Z,2.40
2022-08-30T08:16:40.106Z,2.30
2022-08-30T08:17:40.081Z,2.20
2022-08-30T08:18:40.071Z,2.50
2022-08-30T08:19:41.054Z,2.60
2022-08-30T08:20:40.086Z,2.60
2022-08-30T08:21:40.066Z,2.50
2022-08-30T08:22:40.337Z,2.70
2022-08-30T08:23:41.019Z,2.30
2022-08-30T08:24:40.018Z,2.60
2022-08-30T08:25:40.015Z,2.90
2022-08-30T08:26:41.070Z,2.50
2022-08-30T08:27:41.007Z,2.70
2022-08-30T08:28:39.991Z,2.50
2022-08-30T08:29:39.982Z,2.60
2022-08-30T08:30:39.965Z,2.60
2022-08-30T08:31:40.032Z,2.70
2022-08-30T08:32:39.959Z,2.60
2022-08-30T08:33:39.962Z,2.30
2022-08-30T08:34:39.945Z,2.40
2022-08-30T08:35:39.929Z,2.50
2022-08-30T08:36:40.956Z,2.50
2022-08-30T08:37:39.921Z,2.60
2022-08-30T08:38:39.911Z,2.70
2022-08-30T08:39:39.922Z,2.70
2022-08-30T08:40:39.955Z,2.80
2022-08-30T08:41:39.928Z,3.00
2022-08-30T08:42:39.895Z,2.70
2022-08-30T08:43:39.882Z,2.50
2022-08-30T08:44:39.911Z,3.00
2022-08-30T08:45:39.862Z,2.50
2022-08-30T08:46:39.984Z,2.70
2022-08-30T08:47:40.859Z,2.30
2022-08-30T08:48:58.666Z,2.40
2022-08-30T08:49:41.907Z,2.40
2022-08-30T08:50:39.841Z,2.40
2022-08-30T08:51:39.866Z,2.40
2022-08-30T08:52:39.818Z,2.70
2022-08-30T08:53:47.285Z,2.60
2022-08-30T08:54:41.797Z,2.60
2022-08-30T08:55:39.867Z,2.80
2022-08-30T08:56:39.819Z,2.10
2022-08-30T08:57:39.791Z,2.50
2022-08-30T08:58:39.780Z,3.10
2022-08-30T08:59:39.764Z,2.40
2022-08-30T09:00:39.762Z,2.20
2022-08-30T09:01:39.814Z,2.60
2022-08-30T09:02:39.756Z,2.50
2022-08-30T09:03:39.737Z,2.50
2022-08-30T09:04:39.808Z,2.30
2022-08-30T09:05:39.724Z,2.40
2022-08-30T09:06:45.303Z,2.70
2022-08-30T09:07:40.712Z,2.40
2022-08-30T09:08:39.791Z,2.80
2022-08-30T09:09:39.697Z,2.70
2022-08-30T09:10:50.494Z,2.60
2022-08-30T09:11:41.721Z,2.70
2022-08-30T09:12:39.680Z,3.10
2022-08-30T09:13:39.668Z,2.80
2022-08-30T09:14:44.210Z,2.50
2022-08-30T09:15:40.662Z,2.70
2022-08-30T09:16:39.675Z,2.60
2022-08-30T09:17:39.641Z,2.80
2022-08-30T09:18:39.625Z,2.40
2022-08-30T09:19:39.617Z,2.50
2022-08-30T09:20:39.612Z,2.40
2022-08-30T09:21:39.650Z,2.50
2022-08-30T09:22:39.611Z,2.40
2022-08-30T09:23:39.596Z,2.20
2022-08-30T09:24:39.585Z,2.60
2022-08-30T09:25:41.842Z,2.80
2022-08-30T09:26:40.600Z,2.80
2022-08-30T09:27:39.566Z,2.60
2022-08-30T09:28:39.551Z,2.40
2022-08-30T09:29:39.548Z,2.30
2022-08-30T09:30:39.578Z,2.50
2022-08-30T09:31:39.559Z,2.10
2022-08-30T09:32:39.515Z,2.40
2022-08-30T09:33:39.511Z,2.30
2022-08-30T09:34:39.513Z,2.30
2022-08-30T09:35:39.495Z,2.50
2022-08-30T09:36:39.529Z,2.20
2022-08-30T09:37:39.493Z,2.10
2022-08-30T09:38:39.483Z,2.50
2022-08-30T09:39:39.467Z,2.00
2022-08-30T09:40:39.496Z,2.20
2022-08-30T09:41:39.455Z,2.40
2022-08-30T09:42:39.496Z,2.40
2022-08-30T09:43:39.438Z,2.00
2022-08-30T09:44:39.430Z,2.50
2022-08-30T09:45:39.438Z,2.30
2022-08-30T09:46:39.524Z,2.50
2022-08-30T09:47:39.416Z,2.00
2022-08-30T09:48:39.410Z,2.30
2022-08-30T09:49:39.397Z,2.30
2022-08-30T09:50:39.391Z,2.10
2022-08-30T09:51:40.196Z,2.50
2022-08-30T09:52:39.400Z,2.00
2022-08-30T09:53:40.724Z,2.20
2022-08-30T09:54:40.369Z,2.00
2022-08-30T09:55:39.359Z,2.30
2022-08-30T09:56:39.354Z,2.00
2022-08-30T09:57:39.377Z,1.80
2022-08-30T09:58:39.341Z,2.10
2022-08-30T09:59:39.351Z,2.00
2022-08-30T10:00:39.328Z,1.90
2022-08-30T10:01:39.353Z,1.60
2022-08-30T10:02:39.338Z,2.10
2022-08-30T10:03:40.778Z,2.10
2022-08-30T10:04:39.298Z,1.80
2022-08-30T10:05:39.290Z,1.60
2022-08-30T10:06:39.307Z,1.90
2022-08-30T10:07:39.283Z,1.80
2022-08-30T10:08:39.266Z,1.60
2022-08-30T10:09:39.263Z,1.80
2022-08-30T10:10:41.810Z,1.90
2022-08-30T10:11:40.279Z,1.50
2022-08-30T10:12:39.253Z,1.80
2022-08-30T10:13:39.242Z,1.70
2022-08-30T10:14:39.234Z,1.70
2022-08-30T10:15:39.226Z,1.70
2022-08-30T10:16:39.258Z,1.90
2022-08-30T10:17:39.238Z,1.60
2022-08-30T10:18:39.200Z,1.70
2022-08-30T10:19:39.197Z,1.80
2022-08-30T10:20:39.196Z,1.50
2022-08-30T10:21:39.221Z,1.90
2022-08-30T10:22:39.189Z,2.00
2022-08-30T10:23:39.185Z,1.60
2022-08-30T10:24:39.174Z,1.90
2022-08-30T10:25:39.176Z,1.90
2022-08-30T10:26:39.206Z,2.00
2022-08-30T10:27:39.184Z,2.00
2022-08-30T10:28:39.173Z,1.70
2022-08-30T10:29:42.280Z,1.60
2022-08-30T10:30:40.141Z,1.90
2022-08-30T10:31:39.119Z,1.80
2022-08-30T10:32:39.146Z,1.90
2022-08-30T10:33:39.109Z,2.20
2022-08-30T10:34:39.103Z,2.50
2022-08-30T10:35:39.185Z,1.90
2022-08-30T10:36:39.117Z,2.10
2022-08-30T10:37:39.084Z,1.80
2022-08-30T10:38:39.078Z,1.80
2022-08-30T10:39:39.073Z,1.80
2022-08-30T10:40:39.128Z,1.70
2022-08-30T10:41:39.082Z,2.50
2022-08-30T10:42:40.239Z,1.90
2022-08-30T10:43:40.036Z,1.90
2022-08-30T10:44:39.046Z,2.00
2022-08-30T10:45:39.024Z,1.80
2022-08-30T10:46:39.055Z,2.10
2022-08-30T10:47:39.019Z,1.90
2022-08-30T10:48:39.054Z,1.80
2022-08-30T10:49:40.697Z,1.80
2022-08-30T10:50:41.352Z,1.60
2022-08-30T10:51:40.023Z,1.90
2022-08-30T10:52:38.985Z,1.80
2022-08-30T10:53:38.975Z,1.80
2022-08-30T10:54:38.961Z,1.90
2022-08-30T10:55:39.965Z,1.80
2022-08-30T10:56:38.989Z,2.00
2022-08-30T10:57:38.955Z,1.60
2022-08-30T10:58:38.957Z,1.80
2022-08-30T10:59:38.942Z,1.90
2022-08-30T11:00:38.930Z,2.00
2022-08-30T11:01:46.667Z,2.00
2022-08-30T11:02:39.944Z,1.70
2022-08-30T11:03:38.913Z,2.10
2022-08-30T11:04:38.903Z,1.70
2022-08-30T11:05:41.938Z,1.70
2022-08-30T11:06:38.923Z,1.80
2022-08-30T11:07:38.895Z,1.90
2022-08-30T11:08:38.878Z,2.30
2022-08-30T11:09:38.889Z,1.80
2022-08-30T11:10:38.866Z,1.90
2022-08-30T11:11:40.711Z,1.80
2022-08-30T11:12:38.853Z,1.80
2022-08-30T11:13:38.844Z,1.90
2022-08-30T11:14:38.837Z,1.80
2022-08-30T11:15:38.839Z,1.60
2022-08-30T11:16:38.853Z,1.80
2022-08-30T11:17:38.831Z,1.80
2022-08-30T11:18:38.817Z,1.50
2022-08-30T11:19:38.818Z,1.90
2022-08-30T11:20:38.814Z,1.70
2022-08-30T11:21:38.866Z,2.00
2022-08-30T11:22:39.441Z,2.20
2022-08-30T11:23:39.800Z,1.80
2022-08-30T11:24:38.786Z,1.70
2022-08-30T11:25:38.922Z,1.70
2022-08-30T11:26:39.797Z,1.80
2022-08-30T11:27:39.764Z,2.10
2022-08-30T11:28:38.756Z,2.10
2022-08-30T11:29:38.763Z,1.80
2022-08-30T11:30:38.763Z,1.70
2022-08-30T11:31:38.763Z,1.90
2022-08-30T11:32:38.734Z,2.10
2022-08-30T11:33:38.730Z,1.60
2022-08-30T11:34:38.723Z,1.90
2022-08-30T11:35:38.712Z,1.70
2022-08-30T11:36:38.749Z,1.80
2022-08-30T11:37:39.694Z,1.80
2022-08-30T11:38:38.703Z,1.70
2022-08-30T11:39:38.689Z,1.80
2022-08-30T11:40:38.674Z,1.80
2022-08-30T11:41:42.056Z,1.80
2022-08-30T11:43:38.658Z,1.70
2022-08-30T11:44:38.653Z,2.00
2022-08-30T11:45:38.690Z,1.90
2022-08-30T11:46:38.680Z,1.90
2022-08-30T11:47:38.654Z,2.00
2022-08-30T11:48:38.628Z,1.70
2022-08-30T11:49:39.619Z,1.90
2022-08-30T11:50:38.626Z,1.60
2022-08-30T11:51:38.708Z,1.80
2022-08-30T11:52:39.602Z,1.60
2022-08-30T11:53:38.625Z,1.70
2022-08-30T11:54:38.589Z,1.70
2022-08-30T11:55:38.586Z,1.80
2022-08-30T11:56:38.631Z,1.60
2022-08-30T11:57:38.618Z,2.00
2022-08-30T11:58:38.568Z,1.90
2022-08-30T11:59:39.552Z,2.00
2022-08-30T12:00:38.564Z,2.00
2022-08-30T12:01:49.657Z,1.80
2022-08-30T12:02:40.648Z,1.80
2022-08-30T12:03:38.692Z,1.90
2022-08-30T12:04:38.526Z,2.30
2022-08-30T12:05:38.517Z,1.90
2022-08-30T12:06:38.509Z,1.70
2022-08-30T12:07:38.547Z,1.90
2022-08-30T12:08:38.501Z,2.00
2022-08-30T12:09:38.499Z,1.70
2022-08-30T12:10:38.489Z,2.20
2022-08-30T12:11:38.474Z,1.70
2022-08-30T12:12:38.502Z,1.50
2022-08-30T12:13:38.466Z,1.60
2022-08-30T12:14:40.930Z,1.80
2022-08-30T12:15:38.453Z,1.70
2022-08-30T12:16:38.534Z,2.30
2022-08-30T12:17:38.470Z,2.10
2022-08-30T12:18:38.434Z,1.80
2022-08-30T12:19:38.422Z,2.00
2022-08-30T12:20:38.425Z,1.80
2022-08-30T12:21:43.766Z,2.00
2022-08-30T12:22:39.435Z,2.10
2022-08-30T12:23:44.566Z,2.00
2022-08-30T12:24:39.405Z,1.80
2022-08-30T12:25:38.387Z,2.10
2022-08-30T12:26:38.384Z,1.90
2022-08-30T12:27:38.403Z,2.00
2022-08-30T12:28:38.377Z,1.90
2022-08-30T12:29:38.358Z,2.10
2022-08-30T12:30:38.353Z,1.90
2022-08-30T12:31:38.439Z,1.90
2022-08-30T12:32:38.342Z,1.90
2022-08-30T12:33:41.315Z,2.10
2022-08-30T12:34:38.323Z,1.90
2022-08-30T12:35:38.314Z,1.80
2022-08-30T12:36:38.314Z,2.10
2022-08-30T12:37:38.328Z,1.90
2022-08-30T12:38:38.299Z,1.90
2022-08-30T12:39:38.299Z,1.80
2022-08-30T12:40:38.338Z,2.10
2022-08-30T12:41:43.702Z,2.10
2022-08-30T12:42:39.306Z,2.20
2022-08-30T12:43:40.573Z,2.20
2022-08-30T12:44:38.261Z,1.80
2022-08-30T12:45:38.279Z,1.80
2022-08-30T12:46:38.283Z,1.70
2022-08-30T12:47:38.234Z,1.70
2022-08-30T12:48:38.228Z,1.70
2022-08-30T12:49:38.222Z,1.90
2022-08-30T12:50:38.212Z,2.00
2022-08-30T12:51:38.242Z,1.90
2022-08-30T12:52:38.207Z,2.10
2022-08-30T12:53:38.196Z,1.80
2022-08-30T12:54:38.185Z,2.00
2022-08-30T12:55:38.189Z,1.70
2022-08-30T12:56:50.018Z,1.70
2022-08-30T12:57:40.209Z,1.80
2022-08-30T12:58:38.160Z,1.90
2022-08-30T12:59:38.162Z,2.20
2022-08-30T13:00:38.204Z,1.90
2022-08-30T13:01:38.257Z,1.90
2022-08-30T13:02:38.137Z,1.90
2022-08-30T13:03:38.127Z,1.70
2022-08-30T13:04:38.115Z,2.00
2022-08-30T13:05:44.292Z,2.00
2022-08-30T13:06:40.138Z,1.80
2022-08-30T13:07:38.113Z,1.90
2022-08-30T13:08:38.090Z,1.90
2022-08-30T13:09:38.088Z,1.50
2022-08-30T13:10:38.081Z,1.80
2022-08-30T13:11:38.110Z,2.10
2022-08-30T13:12:38.067Z,2.00
2022-08-30T13:13:38.062Z,1.80
2022-08-30T13:14:38.067Z,2.00
2022-08-30T13:15:38.049Z,1.70
2022-08-30T13:16:41.248Z,2.00
2022-08-30T13:17:39.043Z,1.80
2022-08-30T13:18:38.032Z,1.70
2022-08-30T13:19:38.027Z,1.60